Time;durP1;ratioP1;P1;durP2;ratioP2;P2;SDS_P1;SDS_P2;PMS_P1;PMS_P2;Temp;Humidity;BMP_temperature;BMP_pressure;BME280_temperature;BME280_humidity;BME280_pressure;Samples;Min_cycle;Max_cycle;Signal;HPM_P1;HPM_P2
2022/11/03 00:01:37;;;;;;;8.47;3.47;;;12.20;67.60;;;14.83;51.10;101561.78;4899126;29;20218;-58
2022/11/03 00:04:06;;;;;;;7.50;3.10;;;12.20;67.70;;;14.86;50.93;101564.06;4899342;29;20203;-55
2022/11/03 00:06:34;;;;;;;8.13;3.17;;;12.20;67.60;;;14.87;50.67;101557.78;4899452;29;20687;-56
2022/11/03 00:09:04;;;;;;;5.70;3.03;;;12.20;67.60;;;14.88;50.80;101554.09;4898422;29;20278;-59
2022/11/03 00:11:33;;;;;;;8.43;2.83;;;12.20;67.70;;;14.91;50.83;101552.94;4893864;29;20232;-58
2022/11/03 00:14:02;;;;;;;10.93;2.90;;;12.20;67.60;;;14.93;51.00;101536.84;4899595;29;20199;-58
2022/11/03 00:16:30;;;;;;;6.57;2.70;;;12.20;67.70;;;14.98;51.05;101540.59;4899911;29;20195;-56
2022/11/03 00:18:57;;;;;;;10.37;2.47;;;12.30;67.80;;;14.91;50.69;101532.53;4898551;29;20663;-57
2022/11/03 00:21:25;;;;;;;9.50;3.03;;;12.30;67.60;;;14.93;50.81;101534.22;4898828;29;20214;-56
2022/11/03 00:23:52;;;;;;;7.40;2.73;;;12.30;67.60;;;14.91;50.94;101539.66;4899750;29;20671;-58
2022/11/03 00:26:22;;;;;;;8.50;3.07;;;12.30;67.70;;;14.90;50.92;101522.94;4898539;29;20712;-57
2022/11/03 00:28:51;;;;;;;8.37;2.53;;;12.30;67.70;;;14.92;51.21;101528.06;4898105;29;20247;-58
2022/11/03 00:31:22;;;;;;;6.07;2.40;;;12.30;67.80;;;14.90;51.04;101520.28;4898386;29;20211;-58
2022/11/03 00:33:52;;;;;;;8.03;3.00;;;12.30;67.80;;;14.88;50.98;101522.31;4899001;29;20203;-56
2022/11/03 00:36:22;;;;;;;3.47;2.27;;;12.30;67.80;;;14.89;51.09;101523.13;4899195;29;20668;-57
2022/11/03 00:38:49;;;;;;;5.27;1.93;;;12.30;67.80;;;14.91;51.31;101511.34;4898327;29;20199;-58
2022/11/03 00:41:19;;;;;;;6.43;2.70;;;12.30;67.90;;;14.96;51.17;101512.59;4898711;29;20219;-56
2022/11/03 00:43:48;;;;;;;9.87;2.63;;;12.30;68.00;;;14.99;51.30;101512.25;4898368;29;20203;-57
2022/11/03 00:46:17;;;;;;;7.93;2.23;;;12.30;67.90;;;15.02;51.13;101509.25;4898764;29;20200;-56
2022/11/03 00:48:45;;;;;;;9.17;2.50;;;12.40;68.00;;;15.05;50.97;101506.22;4898223;29;20672;-58
2022/11/03 00:51:14;;;;;;;5.30;2.20;;;12.40;68.00;;;15.05;50.73;101511.53;4889944;29;20227;-57
2022/11/03 00:53:44;;;;;;;7.00;2.30;;;12.40;67.90;;;15.05;51.17;101500.91;4880203;29;20206;-57
2022/11/03 00:56:13;;;;;;;7.43;2.33;;;12.40;67.90;;;15.06;51.09;101494.59;4880190;29;20200;-58
2022/11/03 00:58:42;;;;;;;5.17;2.47;;;12.50;67.90;;;15.08;51.26;101488.09;4883096;29;20214;-57
2022/11/03 01:01:12;;;;;;;7.63;2.40;;;12.40;67.80;;;15.10;50.59;101494.03;4898237;29;20620;-57
2022/11/03 01:06:48;;;;;;;5.83;1.93;;;12.50;68.70;;;15.12;50.72;101491.22;4899050;29;20262;-58
2022/11/03 01:06:52;;;;;;;8.53;2.37;;;12.50;67.80;;;15.12;50.95;101483.25;4898819;29;20760;-58
2022/11/03 01:09:21;;;;;;;6.77;2.10;;;12.50;67.60;;;15.10;50.62;101486.09;4890374;29;20215;-56
2022/11/03 01:11:58;;;;;;;4.83;2.03;;;12.50;67.60;;;15.06;51.04;101481.34;4884110;29;20310;-56
2022/11/03 01:14:28;;;;;;;6.30;2.07;;;12.50;67.60;;;15.03;51.30;101471.09;4899224;29;20202;-58
2022/11/03 01:16:55;;;;;;;6.80;2.30;;;12.50;67.60;;;15.02;51.24;101472.13;4894834;29;20228;-58
2022/11/03 01:19:22;;;;;;;5.60;2.27;;;12.50;67.70;;;14.98;51.42;101466.34;4887822;29;20207;-58
2022/11/03 01:21:51;;;;;;;4.47;2.00;;;12.50;67.80;;;14.96;51.38;101468.38;4893484;29;20267;-57
2022/11/03 01:24:20;;;;;;;7.30;2.47;;;12.50;67.80;;;14.94;51.28;101467.72;4880188;29;20200;-56
2022/11/03 01:26:47;;;;;;;5.33;2.37;;;12.50;67.80;;;14.98;51.36;101473.47;4878218;29;20563;-56
2022/11/03 01:29:14;;;;;;;5.43;2.40;;;12.50;68.00;;;15.00;51.22;101451.06;4896980;29;20660;-56
2022/11/03 01:31:41;;;;;;;7.23;2.27;;;12.40;67.90;;;14.93;51.34;101464.25;4901190;29;20215;-57
2022/11/03 01:34:14;;;;;;;8.53;2.30;;;12.40;67.90;;;14.89;51.61;101464.81;4901204;29;20207;-57
2022/11/03 01:36:42;;;;;;;7.40;2.43;;;12.40;68.00;;;14.82;51.62;101463.91;4902898;29;20259;-57
2022/11/03 01:39:12;;;;;;;10.33;2.40;;;12.40;68.20;;;14.83;51.83;101463.72;4900780;29;20199;-59
2022/11/03 01:41:41;;;;;;;8.80;2.23;;;12.40;68.20;;;14.85;51.62;101469.69;4903295;29;20226;-58
2022/11/03 01:44:29;;;;;;;6.67;2.40;;;12.40;68.20;;;14.73;52.08;101471.16;4904385;29;20203;-58
2022/11/03 01:47:07;;;;;;;7.87;3.20;;;12.40;68.40;;;14.77;51.73;101476.88;4900816;29;20227;-57
2022/11/03 01:49:43;;;;;;;10.33;2.40;;;12.40;68.40;;;14.69;52.14;101475.16;4902256;29;20203;-58
2022/11/03 01:52:17;;;;;;;8.63;2.40;;;12.30;68.40;;;14.72;52.00;101464.19;4900052;29;20227;-58
2022/11/03 01:54:50;;;;;;;9.03;2.47;;;12.30;68.50;;;14.80;51.82;101456.16;4900632;29;20199;-57
2022/11/03 01:57:26;;;;;;;7.27;2.17;;;12.40;68.50;;;14.87;51.69;101457.06;4903415;29;20239;-58
2022/11/03 01:59:57;;;;;;;6.77;1.97;;;12.40;68.50;;;14.93;51.68;101451.00;4902167;29;20199;-58
2022/11/03 02:02:25;;;;;;;6.13;2.23;;;12.40;68.50;;;14.93;51.59;101444.88;4905437;29;20270;-58
2022/11/03 02:04:57;;;;;;;5.83;2.00;;;12.40;68.40;;;14.98;51.55;101439.00;4902889;29;20226;-59
2022/11/03 02:07:32;;;;;;;7.10;2.43;;;12.40;68.40;;;15.01;51.35;101436.00;4903075;29;20619;-57
2022/11/03 02:10:01;;;;;;;4.33;1.80;;;12.40;68.40;;;14.99;51.18;101422.09;4890795;29;20251;-56
2022/11/03 02:12:30;;;;;;;8.37;2.33;;;12.40;68.40;;;15.02;51.60;101411.97;4897805;29;20270;-55
2022/11/03 02:15:03;;;;;;;8.10;2.37;;;12.40;68.40;;;15.02;51.79;101411.13;4903830;29;20204;-58
2022/11/03 02:17:33;;;;;;;7.10;2.47;;;12.40;68.30;;;14.96;51.31;101407.41;4904448;29;20199;-58
2022/11/03 02:20:05;;;;;;;5.40;2.00;;;12.40;68.20;;;14.95;51.41;101405.78;4902888;29;20203;-57
2022/11/03 02:23:02;;;;;;;3.70;1.90;;;12.40;68.20;;;14.87;51.42;101398.75;4903903;29;20215;-57
2022/11/03 02:25:42;;;;;;;7.17;2.57;;;12.40;68.40;;;14.83;51.84;101402.75;4903691;29;20267;-57
2022/11/03 02:28:12;;;;;;;7.77;2.30;;;12.40;68.40;;;14.88;51.83;101392.41;4900327;29;20222;-59
2022/11/03 02:30:48;;;;;;;8.03;2.20;;;12.40;68.50;;;14.85;51.72;101389.34;4902903;29;20557;-58
2022/11/03 02:33:31;;;;;;;8.77;2.20;;;12.30;68.50;;;14.85;51.83;101384.03;4899394;29;25921;-58
2022/11/03 02:36:09;;;;;;;5.93;2.10;;;12.30;68.40;;;14.84;51.43;101377.91;4883964;29;20245;-59
2022/11/03 02:38:46;;;;;;;4.93;1.93;;;12.30;68.50;;;14.86;51.56;101375.88;4884190;29;20200;-58
2022/11/03 02:41:17;;;;;;;5.87;2.27;;;12.30;68.60;;;14.91;51.37;101370.84;4883222;29;20211;-57
2022/11/03 02:43:47;;;;;;;6.00;2.13;;;12.30;68.60;;;14.93;51.52;101371.47;4883150;29;20228;-58
2022/11/03 02:46:17;;;;;;;6.53;2.37;;;12.30;68.60;;;14.93;51.40;101371.47;4884991;29;20188;-57
2022/11/03 02:48:45;;;;;;;5.70;1.90;;;12.30;68.40;;;14.95;51.60;101378.44;4901833;29;20249;-58
2022/11/03 02:51:12;;;;;;;9.77;2.70;;;12.30;68.30;;;14.93;51.45;101370.66;4891896;29;20232;-56
2022/11/03 02:54:02;;;;;;;8.80;2.27;;;12.30;68.30;;;14.89;51.07;101370.22;4883246;29;20200;-59
2022/11/03 02:56:39;;;;;;;6.20;2.10;;;12.30;68.30;;;14.93;51.30;101366.16;4886088;29;20199;-58
2022/11/03 02:59:12;;;;;;;4.10;1.80;;;12.30;68.30;;;14.96;51.39;101364.16;4901361;29;20624;-57
2022/11/03 03:01:47;;;;;;;6.97;2.27;;;12.30;68.30;;;15.00;51.21;101362.78;4901305;29;20287;-58
2022/11/03 03:04:21;;;;;;;5.60;2.00;;;12.30;68.30;;;15.00;51.06;101368.09;4902219;29;20203;-57
2022/11/03 03:06:55;;;;;;;3.83;1.70;;;12.40;68.20;;;15.00;51.08;101365.44;4895843;29;20207;-60
2022/11/03 03:09:28;;;;;;;4.10;1.87;;;12.40;68.20;;;14.96;51.23;101357.03;4901083;29;20232;-56
2022/11/03 03:12:01;;;;;;;5.77;1.87;;;12.40;68.00;;;14.96;50.85;101358.84;4901264;29;20218;-58
2022/11/03 03:14:35;;;;;;;5.17;1.97;;;12.30;68.00;;;14.91;51.12;101357.59;4901416;29;20232;-56
2022/11/03 03:17:09;;;;;;;5.83;1.90;;;12.30;68.10;;;14.91;51.02;101352.28;4901145;29;20203;-58
2022/11/03 03:19:48;;;;;;;8.67;1.97;;;12.30;68.80;;;14.93;51.11;101348.66;4903046;29;20224;-59
2022/11/03 03:22:27;;;;;;;4.73;2.10;;;12.30;68.10;;;14.92;51.09;101339.88;4897023;29;20223;-57
2022/11/03 03:25:03;;;;;;;10.50;2.47;;;12.30;67.90;;;14.95;51.34;101343.97;4882794;29;20620;-58
2022/11/03 03:27:36;;;;;;;5.30;2.33;;;12.30;68.20;;;14.95;50.88;101341.31;4885660;29;20207;-56
2022/11/03 03:30:07;;;;;;;5.07;1.90;;;12.30;67.90;;;14.96;51.08;101335.81;4900731;29;20203;-58
2022/11/03 03:32:38;;;;;;;4.67;1.83;;;12.30;68.00;;;14.99;50.88;101326.66;4900186;29;20245;-59
2022/11/03 03:35:11;;;;;;;8.97;2.60;;;12.30;68.00;;;14.97;51.14;101326.03;4884778;29;20200;-55
2022/11/03 03:37:44;;;;;;;6.17;2.10;;;12.30;67.80;;;14.95;50.86;101325.41;4900065;29;20262;-59
2022/11/03 03:40:18;;;;;;;6.57;2.07;;;12.30;67.80;;;14.91;50.91;101320.47;4899476;29;20203;-58
2022/11/03 03:42:48;;;;;;;6.53;1.90;;;12.30;67.80;;;14.89;50.89;101321.69;4901109;29;20636;-59
2022/11/03 03:45:17;;;;;;;5.00;2.10;;;12.30;67.70;;;14.81;50.94;101325.25;4901474;29;20672;-55
2022/11/03 03:47:46;;;;;;;7.77;1.90;;;12.30;67.80;;;14.82;51.53;101318.13;4887921;29;20220;-57
2022/11/03 03:50:14;;;;;;;7.47;2.03;;;12.20;67.80;;;14.83;51.00;101317.94;4881418;29;20733;-57
2022/11/03 03:52:41;;;;;;;9.23;2.10;;;12.20;68.00;;;14.85;51.00;101315.94;4880325;29;20275;-58
2022/11/03 03:55:17;;;;;;;9.60;2.40;;;12.20;68.00;;;14.85;51.23;101308.00;4881237;29;20567;-54
2022/11/03 03:57:45;;;;;;;4.37;1.67;;;12.20;68.30;;;14.86;51.10;101309.63;4887309;29;20207;-58
2022/11/03 04:00:14;;;;;;;6.77;2.33;;;12.20;68.10;;;14.83;51.35;101312.63;4881047;29;20200;-58
2022/11/03 04:02:41;;;;;;;4.07;1.90;;;12.20;68.30;;;14.75;51.54;101299.53;4880588;29;20287;-58
2022/11/03 04:05:09;;;;;;;6.23;2.23;;;12.10;68.40;;;14.68;51.85;101306.59;4895457;29;20278;-58
2022/11/03 04:07:48;;;;;;;5.43;1.90;;;12.10;68.60;;;14.66;51.99;101305.94;4891541;29;20219;-57
2022/11/03 04:10:18;;;;;;;7.27;2.13;;;12.10;68.70;;;14.64;51.93;101302.63;4881079;29;20652;-58
2022/11/03 04:23:59;;;;;;;9.30;2.20;;;12.10;69.40;;;14.64;52.36;101291.25;4898758;29;20752;-56
2022/11/03 04:26:27;;;;;;;5.97;2.20;;;12.10;69.50;;;14.58;52.63;101292.81;4898841;29;20192;-56
2022/11/03 04:28:57;;;;;;;6.17;2.17;;;12.00;70.40;;;14.59;52.20;101283.88;4898257;29;20223;-56
2022/11/03 04:31:28;;;;;;;4.43;1.90;;;12.00;69.60;;;14.61;52.31;101287.16;4898603;29;20211;-57
2022/11/03 04:33:56;;;;;;;4.57;1.77;;;12.00;69.60;;;14.59;52.73;101277.75;4890854;29;20219;-57
2022/11/03 04:36:25;;;;;;;6.07;1.77;;;12.10;70.00;;;14.57;52.87;101274.47;4890994;29;20282;-57
2022/11/03 04:38:52;;;;;;;6.87;2.20;;;12.00;69.90;;;14.63;52.79;101279.81;4897979;29;20203;-58
2022/11/03 04:41:22;;;;;;;5.47;2.20;;;12.00;69.90;;;14.64;52.77;101276.16;4898230;29;20324;-58
2022/11/03 04:43:51;;;;;;;5.77;2.13;;;12.10;70.20;;;14.64;52.85;101276.16;4898818;29;20199;-57
2022/11/03 04:46:25;;;;;;;5.70;2.60;;;12.10;70.20;;;14.65;52.82;101283.09;4898886;29;20199;-57
2022/11/03 04:48:53;;;;;;;11.27;2.63;;;12.10;70.30;;;14.68;52.90;101277.44;4881382;29;20680;-57
2022/11/03 04:51:24;;;;;;;8.63;2.30;;;12.10;70.30;;;14.68;52.74;101273.97;4879906;29;20315;-57
2022/11/03 04:53:55;;;;;;;5.57;2.20;;;12.10;70.40;;;14.67;53.06;101280.25;4880334;29;20256;-57
2022/11/03 04:56:24;;;;;;;5.53;2.10;;;12.10;70.50;;;14.64;52.90;101270.84;4879941;29;20251;-59
2022/11/03 04:58:52;;;;;;;6.97;2.50;;;12.10;70.50;;;14.69;53.25;101271.09;4895983;29;20869;-58
2022/11/03 05:01:22;;;;;;;6.67;1.93;;;12.10;71.30;;;14.73;53.00;101275.03;4897874;29;20235;-57
2022/11/03 05:03:53;;;;;;;5.20;2.00;;;12.10;70.60;;;14.77;52.91;101268.34;4898400;29;20262;-56
2022/11/03 05:06:25;;;;;;;7.80;2.07;;;12.10;70.60;;;14.82;52.89;101263.31;4899137;29;20282;-58
2022/11/03 05:08:57;;;;;;;3.43;1.73;;;12.20;70.80;;;14.84;52.66;101261.28;4902961;29;20252;-58
2022/11/03 05:11:33;;;;;;;4.70;1.77;;;12.10;70.60;;;14.89;52.50;101253.59;4904486;29;20222;-58
2022/11/03 05:14:05;;;;;;;6.53;2.40;;;12.20;70.80;;;14.95;52.56;101245.88;4905216;29;20227;-59
2022/11/03 05:16:34;;;;;;;4.97;1.77;;;12.20;70.70;;;14.99;52.62;101249.78;4904069;29;20249;-59
2022/11/03 05:19:01;;;;;;;8.77;2.73;;;12.30;70.80;;;15.01;52.54;101245.94;4904049;29;20199;-59
2022/11/03 05:21:28;;;;;;;5.87;2.03;;;12.30;70.70;;;15.03;52.37;101248.38;4905952;29;20315;-60
2022/11/03 05:24:01;;;;;;;7.53;2.30;;;12.30;70.70;;;15.05;52.46;101246.41;4904679;29;20238;-61
2022/11/03 05:26:33;;;;;;;6.77;2.60;;;12.30;70.70;;;15.09;52.64;101242.34;4903274;29;20266;-59
2022/11/03 05:29:08;;;;;;;6.77;2.13;;;12.30;70.80;;;15.14;52.44;101230.13;4898081;29;20238;-58
2022/11/03 05:31:40;;;;;;;7.13;2.30;;;12.40;70.80;;;15.21;52.60;101224.91;4902238;29;20243;-64
2022/11/03 05:34:34;;;;;;;4.77;1.87;;;12.40;70.70;;;15.22;52.08;101223.88;4892793;29;20207;-57
2022/11/03 05:37:21;;;;;;;7.40;2.13;;;12.50;70.60;;;15.28;52.29;101220.47;4898446;29;20576;-58
2022/11/03 05:39:57;;;;;;;9.27;2.27;;;12.60;70.40;;;15.30;52.16;101219.25;4902499;29;20200;-54
2022/11/03 05:42:33;;;;;;;4.57;2.33;;;12.60;70.20;;;15.33;51.77;101204.78;4901727;29;20648;-57
2022/11/03 05:45:07;;;;;;;5.03;2.07;;;12.60;70.20;;;15.31;52.07;101204.97;4902992;29;20191;-59
2022/11/03 05:47:38;;;;;;;5.10;2.13;;;12.60;70.00;;;15.27;52.19;101197.59;4902180;29;20190;-59
2022/11/03 05:50:19;;;;;;;5.50;2.20;;;12.60;70.00;;;15.21;52.19;101209.81;4903010;29;20183;-59
2022/11/03 05:52:50;;;;;;;6.80;2.20;;;12.60;70.10;;;15.19;52.55;101211.00;4902935;29;20214;-58
2022/11/03 05:55:26;;;;;;;3.37;1.87;;;12.60;70.20;;;15.17;52.55;101205.88;4901628;29;20252;-57
2022/11/03 05:57:57;;;;;;;5.63;2.27;;;12.60;70.40;;;15.18;52.78;101199.59;4901016;29;20207;-58
2022/11/03 06:00:31;;;;;;;8.13;2.40;;;12.60;70.60;;;15.22;52.81;101194.69;4901326;29;20200;-58
2022/11/03 06:03:00;;;;;;;7.40;2.20;;;12.60;70.70;;;15.24;52.70;101196.16;4900383;29;20194;-57
2022/11/03 06:05:30;;;;;;;5.97;2.30;;;12.60;70.60;;;15.24;52.90;101203.28;4901551;29;20211;-59
2022/11/03 06:08:01;;;;;;;5.37;2.70;;;12.60;70.80;;;15.23;52.78;101191.03;4892780;29;20299;-56
2022/11/03 06:10:35;;;;;;;7.63;2.67;;;12.60;70.80;;;15.22;52.97;101195.53;4882053;29;20256;-58
2022/11/03 06:13:12;;;;;;;5.53;2.37;;;12.60;71.00;;;15.17;52.94;101195.28;4896916;29;20203;-58
2022/11/03 06:15:44;;;;;;;9.53;2.40;;;12.60;71.00;;;15.15;53.18;101193.81;4901297;29;20199;-58
2022/11/03 06:18:17;;;;;;;7.60;2.50;;;12.50;71.20;;;15.13;52.94;101182.59;4900482;29;20258;-59
2022/11/03 06:20:51;;;;;;;9.90;2.20;;;12.50;71.20;;;15.13;53.37;101177.28;4901040;29;20195;-55
2022/11/03 06:23:19;;;;;;;6.13;3.37;;;12.50;71.30;;;15.13;53.32;101174.66;4901984;29;20199;-59
2022/11/03 06:25:48;;;;;;;6.07;2.23;;;12.50;71.40;;;15.13;53.43;101169.34;4901745;29;20258;-59
2022/11/03 06:28:21;;;;;;;7.20;3.00;;;12.50;71.60;;;15.14;53.48;101176.31;4901359;29;20667;-59
2022/11/03 06:30:48;;;;;;;9.60;3.23;;;12.50;71.60;;;15.14;53.45;101171.00;4905080;29;20275;-57
2022/11/03 06:33:25;;;;;;;8.00;2.57;;;12.50;71.80;;;15.15;53.56;101177.91;4898887;29;20211;-57
2022/11/03 06:35:59;;;;;;;5.60;2.87;;;12.50;71.70;;;15.17;53.56;101170.59;4901130;29;20213;-57
2022/11/03 06:38:30;;;;;;;8.30;3.17;;;12.50;71.80;;;15.23;53.50;101169.81;4900359;29;20360;-57
2022/11/03 06:40:57;;;;;;;6.63;2.83;;;12.60;72.00;;;15.26;53.49;101169.44;4900264;29;20215;-58
2022/11/03 06:43:35;;;;;;;7.43;2.20;;;12.60;72.00;;;15.27;53.59;101165.75;4901215;29;20203;-57
2022/11/03 06:46:17;;;;;;;9.37;2.57;;;12.60;72.00;;;15.23;53.45;101160.03;4900397;29;20203;-55
2022/11/03 06:48:46;;;;;;;8.03;2.83;;;12.60;72.00;;;15.27;53.23;101157.81;4887479;29;20542;-57
2022/11/03 06:51:21;;;;;;;3.13;2.10;;;12.60;71.90;;;15.28;53.41;101159.47;4882423;29;20231;-58
2022/11/03 06:53:51;;;;;;;9.07;2.70;;;12.60;71.80;;;15.29;53.48;101153.94;4894992;29;20195;-57
2022/11/03 06:56:22;;;;;;;10.43;3.20;;;12.60;71.90;;;15.25;53.56;101157.19;4900881;29;20211;-57
2022/11/03 06:58:52;;;;;;;7.87;2.40;;;12.60;71.90;;;15.20;53.86;101155.13;4901363;29;20259;-61
2022/11/03 07:01:24;;;;;;;5.90;2.67;;;12.60;72.00;;;15.17;53.90;101150.19;4899808;29;20227;-56
2022/11/03 07:04:00;;;;;;;11.07;2.80;;;12.60;72.10;;;15.18;53.58;101146.53;4900906;29;20338;-58
2022/11/03 07:06:33;;;;;;;8.87;2.63;;;12.60;72.20;;;15.27;53.69;101144.53;4901073;29;20550;-57
2022/11/03 07:09:04;;;;;;;7.53;2.60;;;12.60;72.30;;;15.33;53.50;101143.78;4885763;29;20688;-58
2022/11/03 07:11:43;;;;;;;8.10;2.53;;;12.60;72.30;;;15.35;53.79;101147.06;4884261;29;20790;-56
2022/11/03 07:14:16;;;;;;;12.50;3.57;;;12.60;72.30;;;15.37;53.79;101134.41;4899947;29;20198;-57
2022/11/03 07:16:47;;;;;;;5.90;2.20;;;12.70;72.30;;;15.43;53.41;101144.22;4900764;29;20199;-56
2022/11/03 07:19:20;;;;;;;6.93;2.40;;;12.70;72.30;;;15.48;53.40;101144.50;4883842;29;20633;-59
2022/11/03 07:21:51;;;;;;;8.77;2.47;;;12.70;72.30;;;15.51;53.39;101136.97;4881479;29;20212;-58
2022/11/03 07:24:24;;;;;;;7.57;2.60;;;12.80;72.30;;;15.55;53.25;101137.38;4882226;29;20211;-58
2022/11/03 07:27:00;;;;;;;7.00;2.70;;;12.80;72.20;;;15.58;53.40;101137.00;4881703;29;20610;-56
2022/11/03 07:29:30;;;;;;;9.73;3.93;;;12.80;72.20;;;15.66;53.34;101139.50;4900096;29;20226;-55
2022/11/03 07:31:59;;;;;;;5.23;2.63;;;12.90;72.30;;;15.74;53.10;101134.00;4900613;29;20227;-57
2022/11/03 07:34:32;;;;;;;9.30;3.50;;;12.90;72.30;;;15.82;53.23;101125.88;4901618;29;20202;-57
2022/11/03 07:36:59;;;;;;;5.67;2.63;;;13.00;72.30;;;15.93;53.13;101121.81;4902719;29;20207;-55
2022/11/03 07:39:35;;;;;;;7.20;2.90;;;13.10;72.20;;;16.02;52.47;101124.09;4902680;29;20195;-58
2022/11/03 07:42:12;;;;;;;6.90;2.70;;;13.20;72.10;;;16.08;52.45;101117.97;4895313;29;20251;-58
2022/11/03 07:44:39;;;;;;;12.37;5.93;;;13.20;71.70;;;16.13;52.37;101107.56;4882445;29;20668;-58
2022/11/03 07:47:14;;;;;;;7.87;2.67;;;13.30;71.50;;;16.16;52.22;101098.41;4882141;29;20200;-57
2022/11/03 07:49:44;;;;;;;9.00;2.80;;;13.40;71.40;;;16.11;52.24;101101.66;4899909;29;20218;-56
2022/11/03 07:52:15;;;;;;;9.97;3.13;;;13.40;71.20;;;16.12;52.77;101107.75;4899433;29;20219;-57
2022/11/03 07:54:42;;;;;;;7.77;3.37;;;13.50;71.30;;;16.15;52.36;101094.91;4899470;29;20558;-59
2022/11/03 07:57:18;;;;;;;7.60;3.20;;;13.50;71.30;;;16.13;52.49;101094.31;4900559;29;20517;-59
2022/11/03 07:59:49;;;;;;;8.00;3.57;;;13.40;71.40;;;16.09;53.01;101095.69;4899956;29;20199;-57
2022/11/03 08:02:30;;;;;;;5.80;2.77;;;13.40;71.30;;;16.08;52.98;101091.44;4899831;29;20660;-56
2022/11/03 08:04:58;;;;;;;9.27;2.70;;;13.50;71.50;;;16.07;52.76;101095.09;4899575;29;20210;-58
2022/11/03 08:07:26;;;;;;;7.17;3.20;;;13.50;71.50;;;16.07;52.98;101087.13;4897657;29;20199;-61
2022/11/03 08:09:54;;;;;;;8.00;2.70;;;13.50;71.60;;;16.07;52.87;101084.47;4880737;29;20625;-57
2022/11/03 08:12:22;;;;;;;5.70;2.77;;;13.50;71.70;;;16.05;53.38;101086.50;4888690;29;20223;-56
2022/11/03 08:14:49;;;;;;;7.23;2.93;;;13.40;71.60;;;16.10;53.31;101084.06;4899856;29;20195;-59
2022/11/03 08:17:16;;;;;;;5.73;2.23;;;13.50;71.80;;;16.16;53.22;101083.25;4898804;29;20267;-59
2022/11/03 08:19:43;;;;;;;9.67;2.60;;;13.50;71.80;;;16.18;53.10;101075.91;4899216;29;20196;-58
2022/11/03 08:22:11;;;;;;;7.90;3.10;;;13.50;71.90;;;16.23;53.25;101072.66;4900733;29;20625;-57
2022/11/03 08:24:38;;;;;;;7.63;2.47;;;13.50;71.90;;;16.34;52.68;101079.19;4900570;29;20644;-57
2022/11/03 08:27:05;;;;;;;6.43;2.87;;;13.60;71.90;;;16.45;52.86;101070.63;4900264;29;20281;-58
2022/11/03 08:29:33;;;;;;;4.57;2.33;;;13.60;71.90;;;16.52;52.49;101066.94;4900572;29;20242;-57
2022/11/03 08:32:00;;;;;;;7.20;2.50;;;13.70;71.60;;;16.57;52.32;101055.75;4900361;29;20648;-57
2022/11/03 08:34:27;;;;;;;7.57;2.97;;;13.70;71.40;;;16.61;52.25;101048.97;4900002;29;20199;-57
2022/11/03 08:36:54;;;;;;;7.67;2.97;;;13.80;71.50;;;16.68;52.13;101055.09;4901338;29;20211;-59
2022/11/03 08:39:22;;;;;;;7.17;3.50;;;13.80;71.30;;;16.77;52.08;101059.16;4901911;29;20195;-58
2022/11/03 08:41:56;;;;;;;5.37;2.43;;;13.90;71.20;;;16.86;51.17;101052.59;4903499;29;20556;-59
2022/11/03 08:44:23;;;;;;;6.87;3.23;;;14.00;71.00;;;16.95;51.63;101048.69;4901130;29;20201;-58
2022/11/03 08:46:50;;;;;;;7.57;3.17;;;14.10;70.70;;;17.03;51.23;101043.16;4903397;29;20207;-58
2022/11/03 08:49:18;;;;;;;6.27;3.20;;;14.20;70.50;;;17.15;51.10;101040.66;4903219;29;20578;-55
2022/11/03 08:51:45;;;;;;;7.63;2.77;;;14.30;70.50;;;17.23;51.17;101033.28;4902576;29;20703;-59
2022/11/03 08:54:12;;;;;;;8.40;2.90;;;14.40;70.10;;;17.33;50.78;101038.16;4902550;29;20664;-57
2022/11/03 08:56:40;;;;;;;6.63;3.00;;;14.50;70.00;;;17.48;50.65;101028.03;4901653;29;20524;-57
2022/11/03 08:59:07;;;;;;;4.50;2.60;;;14.60;69.70;;;17.65;50.23;101020.41;4901849;29;20586;-59
2022/11/03 09:01:35;;;;;;;7.37;2.47;;;14.70;69.50;;;17.76;49.67;101017.09;4899950;29;20219;-58
2022/11/03 09:04:02;;;;;;;10.13;3.07;;;14.80;68.70;;;17.69;49.45;101010.97;4899973;29;20203;-58
2022/11/03 09:06:29;;;;;;;7.47;2.50;;;14.80;68.00;;;17.76;49.59;101017.09;4900418;29;20199;-57
2022/11/03 09:08:57;;;;;;;5.57;2.27;;;15.00;69.00;;;17.83;49.56;101023.97;4899537;29;20207;-57
2022/11/03 09:11:45;;;;;;;6.40;2.83;;;15.00;68.00;;;17.89;49.28;101017.81;4899157;29;20290;-58
2022/11/03 09:14:12;;;;;;;7.57;2.50;;;15.10;67.70;;;17.96;49.28;101017.75;4899950;29;20215;-57
2022/11/03 09:16:39;;;;;;;6.53;3.47;;;15.20;67.80;;;18.05;48.85;101006.63;4900637;29;20199;-58
2022/11/03 09:19:06;;;;;;;4.67;2.87;;;15.20;67.80;;;18.13;49.18;101011.69;4885852;29;20200;-57
2022/11/03 09:21:33;;;;;;;8.17;2.70;;;15.30;67.60;;;18.23;48.78;101013.88;4880203;29;20223;-56
2022/11/03 09:24:00;;;;;;;8.10;2.53;;;15.30;67.50;;;18.29;48.63;100999.66;4880116;29;20263;-57
2022/11/03 09:26:27;;;;;;;6.03;2.60;;;15.40;67.20;;;18.38;48.80;101008.19;4879583;29;20192;-57
2022/11/03 09:28:56;;;;;;;7.33;2.33;;;15.50;67.40;;;18.47;48.20;101004.25;4891580;29;20213;-57
2022/11/03 09:31:27;;;;;;;7.23;2.77;;;15.50;67.00;;;18.54;48.21;100995.13;4898996;29;20219;-57
2022/11/03 09:34:10;;;;;;;6.57;2.50;;;15.60;66.80;;;18.61;48.10;100995.88;4898561;29;20199;-58
2022/11/03 09:36:37;;;;;;;6.90;2.60;;;15.70;66.90;;;18.63;47.62;100993.84;4898656;29;20199;-57
2022/11/03 09:39:05;;;;;;;6.50;2.70;;;15.70;66.00;;;18.72;47.62;100986.34;4897894;29;20255;-57
2022/11/03 09:41:33;;;;;;;6.73;2.30;;;15.90;66.10;;;18.88;47.74;100981.25;4898509;29;20218;-58
2022/11/03 09:44:22;;;;;;;7.07;2.90;;;15.90;65.90;;;19.04;46.85;100979.81;4899036;29;20725;-56
2022/11/03 09:46:50;;;;;;;5.17;2.70;;;16.10;65.10;;;19.20;46.54;100981.91;4898970;29;20585;-57
2022/11/03 09:49:27;;;;;;;6.53;2.60;;;16.20;64.70;;;19.31;46.20;100986.47;4899600;29;20219;-55
2022/11/03 09:51:54;;;;;;;6.03;2.60;;;16.30;64.50;;;19.46;46.33;100983.44;4900256;29;20219;-58
2022/11/03 09:54:21;;;;;;;5.73;2.30;;;16.50;64.30;;;19.53;45.58;100968.13;4899894;29;20187;-57
2022/11/03 09:57:32;;;;;;;6.73;2.40;;;16.50;63.20;;;19.49;45.51;100969.63;4901335;29;20263;-59
2022/11/03 10:00:18;;;;;;;6.03;2.60;;;16.60;62.80;;;19.35;45.71;100968.16;4901458;29;20192;-58
2022/11/03 10:02:46;;;;;;;8.30;2.27;;;16.70;62.30;;;19.39;45.53;100966.69;4900663;29;20334;-60
2022/11/03 10:05:21;;;;;;;5.43;2.57;;;16.70;62.50;;;19.41;45.85;100960.06;4899639;29;20199;-59
2022/11/03 10:07:50;;;;;;;6.23;2.57;;;16.70;62.30;;;19.43;45.61;100951.81;4896900;29;20207;-59
2022/11/03 10:10:20;;;;;;;5.87;2.17;;;16.70;62.30;;;19.43;45.46;100951.81;4893464;29;20600;-58
2022/11/03 10:12:50;;;;;;;7.17;2.77;;;16.70;62.20;;;19.42;45.51;100947.53;4899229;29;20636;-58
2022/11/03 10:15:25;;;;;;;6.30;2.50;;;16.70;62.00;;;19.39;45.58;100945.31;4899259;29;20206;-58
2022/11/03 10:17:59;;;;;;;4.83;2.03;;;16.70;62.10;;;19.40;45.25;100946.94;4900838;29;20294;-60
2022/11/03 10:20:30;;;;;;;7.07;2.43;;;16.70;62.20;;;19.38;45.33;100944.50;4901658;29;20250;-57
2022/11/03 10:22:59;;;;;;;7.17;2.30;;;16.70;61.80;;;19.44;45.21;100948.13;4900502;29;20272;-59
2022/11/03 10:25:39;;;;;;;6.50;2.27;;;16.80;62.20;;;19.43;45.18;100947.31;4902083;29;20195;-58
2022/11/03 10:28:14;;;;;;;7.30;2.73;;;16.80;61.70;;;19.43;45.39;100938.47;4904187;29;20195;-59
2022/11/03 10:30:56;;;;;;;5.97;2.50;;;16.80;61.70;;;19.38;44.74;100946.34;4886700;29;20239;-56
2022/11/03 10:33:50;;;;;;;7.17;2.97;;;16.80;61.70;;;19.34;44.98;100947.81;4898950;29;20298;-58
2022/11/03 10:36:24;;;;;;;5.33;2.70;;;16.80;61.20;;;19.29;45.28;100945.00;4900140;29;20219;-59
2022/11/03 10:38:54;;;;;;;8.33;2.70;;;16.80;61.20;;;19.38;45.43;100947.16;4898446;29;20710;-59
2022/11/03 10:41:24;;;;;;;9.83;2.67;;;16.80;61.70;;;19.41;45.29;100937.91;4900708;29;20235;-56
2022/11/03 10:44:04;;;;;;;6.37;2.83;;;16.80;61.20;;;19.25;45.05;100933.16;4901421;29;20187;-58